Time;durP1;ratioP1;P1;durP2;ratioP2;P2;SDS_P1;SDS_P2;PMS_P1;PMS_P2;Temp;Humidity;BMP_temperature;BMP_pressure;BME280_temperature;BME280_humidity;BME280_pressure;Samples;Min_cycle;Max_cycle;Signal;HPM_P1;HPM_P2
2022/06/09 00:01:24;;;;;;;4.53;2.13;;;16.00;99.90;;;;;;4100943;28;20046;-67
2022/06/09 00:03:37;;;;;;;6.13;2.70;;;15.90;99.90;;;;;;4096585;28;20039;-67
2022/06/09 00:05:39;;;;;;;6.55;2.25;;;15.90;99.90;;;;;;4096852;28;20045;-67
2022/06/09 00:07:41;;;;;;;3.40;1.90;;;15.90;99.90;;;;;;4096189;29;20035;-67
2022/06/09 00:09:50;;;;;;;8.23;2.30;;;15.90;99.90;;;;;;4095797;28;20082;-67
2022/06/09 00:11:51;;;;;;;5.55;1.92;;;15.90;99.90;;;;;;4095793;29;20042;-67
2022/06/09 00:13:53;;;;;;;5.82;1.98;;;15.90;99.90;;;;;;4096192;29;20039;-67
2022/06/09 00:15:54;;;;;;;7.38;1.90;;;15.90;99.90;;;;;;4082023;28;20158;-67
2022/06/09 00:17:54;;;;;;;6.78;2.08;;;15.90;99.90;;;;;;4079266;29;20582;-67
2022/06/09 00:19:55;;;;;;;7.30;2.60;;;15.90;99.90;;;;;;4096150;29;20039;-67
2022/06/09 00:21:56;;;;;;;10.65;2.13;;;15.80;99.90;;;;;;4095711;29;20035;-66
2022/06/09 00:23:56;;;;;;;5.95;2.20;;;15.70;99.90;;;;;;4096341;29;20035;-67
2022/06/09 00:25:57;;;;;;;3.35;1.48;;;15.70;99.90;;;;;;4099495;28;20052;-67
2022/06/09 00:27:57;;;;;;;7.57;1.92;;;15.70;99.90;;;;;;4096425;28;20102;-67
2022/06/09 00:29:58;;;;;;;12.50;2.25;;;15.70;99.90;;;;;;4096424;28;20062;-67
2022/06/09 00:31:58;;;;;;;6.60;1.73;;;15.70;99.90;;;;;;4095542;28;20062;-67
2022/06/09 00:33:59;;;;;;;6.13;1.98;;;15.70;99.90;;;;;;4096446;28;20027;-67
2022/06/09 00:36:00;;;;;;;6.35;1.98;;;15.70;99.90;;;;;;4102396;28;20030;-67
2022/06/09 00:38:00;;;;;;;7.60;2.22;;;15.60;99.90;;;;;;4095976;29;20050;-67
2022/06/09 00:40:02;;;;;;;4.40;1.60;;;15.60;99.90;;;;;;4096121;29;20110;-67
2022/06/09 00:42:05;;;;;;;4.18;1.45;;;15.60;99.90;;;;;;4095179;29;20046;-67
2022/06/09 00:44:25;;;;;;;5.75;1.90;;;15.60;99.90;;;;;;4079208;29;20087;-67
2022/06/09 00:46:31;;;;;;;5.55;1.77;;;15.60;99.90;;;;;;4103425;28;20027;-67
2022/06/09 00:48:42;;;;;;;5.70;1.58;;;15.60;99.90;;;;;;4096177;29;20410;-67
2022/06/09 00:50:43;;;;;;;12.18;2.13;;;15.60;99.90;;;;;;4095212;29;20137;-67
2022/06/09 00:52:49;;;;;;;8.43;2.28;;;15.60;99.90;;;;;;4095716;29;20058;-67
2022/06/09 00:54:54;;;;;;;6.53;1.75;;;15.60;99.90;;;;;;4095890;29;20036;-67
2022/06/09 00:57:03;;;;;;;5.20;1.70;;;15.60;99.90;;;;;;4105424;28;20102;-67
2022/06/09 00:59:04;;;;;;;5.43;1.70;;;15.60;99.90;;;;;;4095736;29;20062;-67
2022/06/09 01:01:10;;;;;;;4.10;1.63;;;15.60;99.90;;;;;;4095136;29;20043;-67
2022/06/09 01:03:10;;;;;;;5.85;1.90;;;15.60;99.90;;;;;;4095880;29;20036;-67
2022/06/09 01:05:15;;;;;;;5.13;1.50;;;15.60;99.90;;;;;;4108104;28;20037;-67
2022/06/09 01:07:35;;;;;;;4.07;1.60;;;15.60;99.90;;;;;;4105828;28;20031;-67
2022/06/09 01:09:36;;;;;;;4.93;1.63;;;15.60;99.90;;;;;;4095672;29;20478;-67
2022/06/09 01:11:38;;;;;;;5.03;1.60;;;15.60;99.90;;;;;;4095228;29;20035;-67
2022/06/09 01:13:40;;;;;;;8.15;1.85;;;15.50;99.90;;;;;;4096911;28;20552;-67
2022/06/09 01:15:53;;;;;;;4.82;1.55;;;15.50;99.90;;;;;;4111155;28;20110;-67
2022/06/09 01:18:02;;;;;;;7.75;1.70;;;15.50;99.90;;;;;;4099262;28;20051;-67
2022/06/09 01:20:25;;;;;;;5.53;1.80;;;15.50;99.90;;;;;;4095246;28;20486;-67
2022/06/09 01:22:48;;;;;;;8.47;2.00;;;15.50;99.90;;;;;;4098387;29;20409;-67
2022/06/09 01:25:14;;;;;;;7.35;2.10;;;15.50;99.90;;;;;;4107717;28;20041;-67
2022/06/09 01:27:45;;;;;;;6.72;2.05;;;15.50;99.90;;;;;;4113749;28;20371;-67
2022/06/09 01:30:03;;;;;;;8.45;1.80;;;15.40;99.90;;;;;;4098511;29;20035;-67
2022/06/09 01:32:04;;;;;;;7.53;1.90;;;15.40;99.90;;;;;;4080801;29;20031;-67
2022/06/09 01:34:28;;;;;;;4.72;1.70;;;15.40;99.90;;;;;;4102343;28;20546;-67
2022/06/09 01:36:36;;;;;;;8.82;2.00;;;15.40;99.90;;;;;;4113765;28;20035;-67
2022/06/09 01:38:48;;;;;;;9.13;1.77;;;15.40;99.90;;;;;;4104903;28;20094;-67
2022/06/09 01:40:48;;;;;;;5.72;1.58;;;15.40;99.90;;;;;;4097918;29;20240;-67
2022/06/09 01:42:52;;;;;;;6.70;1.90;;;15.30;99.90;;;;;;4103612;28;20051;-67
2022/06/09 01:45:01;;;;;;;6.40;1.88;;;15.30;99.90;;;;;;4098777;28;20047;-67
2022/06/09 01:47:02;;;;;;;9.13;1.80;;;15.30;99.90;;;;;;4098500;28;20047;-67
2022/06/09 01:49:10;;;;;;;6.57;1.83;;;15.30;99.90;;;;;;4098427;28;20032;-70
2022/06/09 01:51:15;;;;;;;5.93;1.77;;;15.30;99.90;;;;;;4098157;28;20118;-67
2022/06/09 01:53:20;;;;;;;11.50;1.90;;;15.20;99.90;;;;;;4104901;28;20490;-67
2022/06/09 01:55:23;;;;;;;12.48;2.35;;;15.20;99.90;;;;;;4097360;29;20058;-67
2022/06/09 01:57:33;;;;;;;7.78;1.90;;;15.10;99.90;;;;;;4098150;29;20050;-67
2022/06/09 01:59:40;;;;;;;7.35;2.10;;;15.10;99.90;;;;;;4096850;28;20115;-67
2022/06/09 02:01:44;;;;;;;5.38;1.67;;;15.10;99.90;;;;;;4096204;28;20027;-67
2022/06/09 02:03:48;;;;;;;6.53;1.92;;;15.10;99.90;;;;;;4108310;28;20035;-67
2022/06/09 02:05:52;;;;;;;8.13;1.88;;;15.00;99.90;;;;;;4080191;29;20062;-67
2022/06/09 02:07:57;;;;;;;7.13;2.00;;;15.10;99.90;;;;;;4098283;29;20082;-66
2022/06/09 02:10:10;;;;;;;10.75;2.47;;;15.10;99.90;;;;;;4099993;28;20039;-67
2022/06/09 02:12:13;;;;;;;;;;;15.10;99.90;;;;;;4114179;28;20097;-67
2022/06/09 02:14:16;;;;;;;4.88;1.48;;;15.20;99.90;;;;;;4106818;28;20366;-67
2022/06/09 02:16:20;;;;;;;7.97;2.13;;;15.20;99.90;;;;;;4097365;29;20398;-67
2022/06/09 02:18:25;;;;;;;4.63;2.20;;;15.20;99.90;;;;;;4098043;29;20054;-67
2022/06/09 02:20:25;;;;;;;9.35;1.85;;;15.20;99.90;;;;;;4102304;28;20125;-67
2022/06/09 02:22:26;;;;;;;7.05;1.90;;;15.20;99.90;;;;;;4113704;28;20035;-67
2022/06/09 02:24:27;;;;;;;11.10;2.90;;;15.20;99.90;;;;;;4107270;28;20028;-67
2022/06/09 02:26:28;;;;;;;7.25;2.00;;;15.20;99.90;;;;;;4080470;29;20028;-67
2022/06/09 02:28:29;;;;;;;12.00;2.55;;;15.20;99.90;;;;;;4097784;29;20122;-66
2022/06/09 02:30:29;;;;;;;5.55;2.08;;;15.10;99.90;;;;;;4101816;28;20058;-67
2022/06/09 02:32:32;;;;;;;7.65;2.53;;;15.10;99.90;;;;;;4113202;28;20047;-66
2022/06/09 02:34:33;;;;;;;9.60;2.38;;;15.10;99.90;;;;;;4101985;28;20035;-68
2022/06/09 02:36:33;;;;;;;10.48;2.67;;;15.10;99.90;;;;;;4097130;29;20051;-68
2022/06/09 02:38:34;;;;;;;9.50;2.47;;;15.10;99.90;;;;;;4097583;29;20035;-67
2022/06/09 02:40:35;;;;;;;10.65;2.58;;;15.10;99.90;;;;;;4103356;28;20043;-67
2022/06/09 02:42:35;;;;;;;11.38;2.50;;;15.10;99.90;;;;;;4096581;28;20038;-67
2022/06/09 02:44:36;;;;;;;7.72;2.47;;;15.10;99.90;;;;;;4109078;28;20422;-67
2022/06/09 02:46:36;;;;;;;7.30;1.90;;;15.10;99.90;;;;;;4097152;28;20027;-67
2022/06/09 02:48:37;;;;;;;8.45;2.42;;;15.20;99.90;;;;;;4097913;28;20041;-67
2022/06/09 02:50:39;;;;;;;6.32;2.40;;;15.20;99.90;;;;;;4103617;28;20038;-67
2022/06/09 02:52:41;;;;;;;14.40;2.92;;;15.20;99.90;;;;;;4113447;28;20042;-66
2022/06/09 02:54:42;;;;;;;8.38;2.58;;;15.20;99.90;;;;;;4110922;28;20030;-67
2022/06/09 02:56:43;;;;;;;10.18;2.72;;;15.20;99.90;;;;;;4097075;29;20066;-67
2022/06/09 02:58:44;;;;;;;7.82;2.75;;;15.20;99.90;;;;;;4097308;29;20031;-67
2022/06/09 03:00:44;;;;;;;8.05;2.17;;;15.20;99.90;;;;;;4102441;28;20046;-67
2022/06/09 03:02:59;;;;;;;5.72;2.13;;;15.20;99.90;;;;;;4113522;28;20181;-67
2022/06/09 03:05:01;;;;;;;9.05;2.38;;;15.30;99.90;;;;;;4110820;28;20031;-67
2022/06/09 03:07:01;;;;;;;9.98;2.70;;;15.30;99.90;;;;;;4097257;28;20050;-67
2022/06/09 03:09:02;;;;;;;9.38;2.28;;;15.30;99.90;;;;;;4097551;28;20051;-67
2022/06/09 03:11:03;;;;;;;5.50;2.05;;;15.30;99.90;;;;;;4095865;28;20042;-69
2022/06/09 03:13:05;;;;;;;6.25;2.67;;;15.40;99.90;;;;;;4097155;29;20043;-67
2022/06/09 03:15:08;;;;;;;9.50;2.70;;;15.40;99.90;;;;;;4096291;29;20036;-67
2022/06/09 03:17:08;;;;;;;8.93;3.13;;;15.30;99.90;;;;;;4096382;29;20039;-67
2022/06/09 03:19:09;;;;;;;16.27;4.50;;;15.30;99.90;;;;;;4096896;29;20044;-67
2022/06/09 03:21:12;;;;;;;12.50;3.75;;;15.30;99.90;;;;;;4102168;28;20493;-67
2022/06/09 03:23:12;;;;;;;9.50;3.45;;;15.30;99.90;;;;;;4112682;28;20102;-68
2022/06/09 03:25:13;;;;;;;16.20;4.47;;;15.30;99.90;;;;;;4112608;28;20134;-67
2022/06/09 03:27:14;;;;;;;19.25;4.32;;;15.30;99.90;;;;;;4096912;28;20398;-67
2022/06/09 03:29:15;;;;;;;15.60;4.70;;;15.20;99.90;;;;;;4096732;29;20035;-67
2022/06/09 03:31:15;;;;;;;13.07;3.58;;;15.20;99.90;;;;;;4078464;29;20471;-67
2022/06/09 03:33:16;;;;;;;17.58;4.53;;;15.20;99.90;;;;;;4097421;28;20028;-67
2022/06/09 03:35:16;;;;;;;14.70;3.97;;;15.20;99.90;;;;;;4096020;29;20035;-67
2022/06/09 03:37:18;;;;;;;10.18;3.85;;;15.20;99.90;;;;;;4096350;29;20039;-67
2022/06/09 03:39:18;;;;;;;14.25;4.35;;;15.10;99.90;;;;;;4096435;29;20063;-67
2022/06/09 03:41:19;;;;;;;12.70;4.28;;;15.10;99.90;;;;;;4095389;28;20043;-67
2022/06/09 03:43:20;;;;;;;14.00;4.65;;;15.20;99.90;;;;;;4095815;28;20047;-67
2022/06/09 03:45:21;;;;;;;15.63;5.07;;;15.20;99.90;;;;;;4078462;29;20546;-67
2022/06/09 03:47:22;;;;;;;16.85;5.38;;;15.10;99.90;;;;;;4096244;29;20518;-67
2022/06/09 03:49:23;;;;;;;13.55;5.13;;;15.10;99.90;;;;;;4093148;28;20043;-67
2022/06/09 03:51:24;;;;;;;18.45;5.45;;;15.10;99.90;;;;;;4095701;29;20071;-67
2022/06/09 03:53:24;;;;;;;17.05;5.40;;;15.10;99.90;;;;;;4096188;29;20043;-67
2022/06/09 03:55:25;;;;;;;18.95;5.93;;;15.20;99.90;;;;;;4095423;29;20039;-67
2022/06/09 03:57:26;;;;;;;8.68;4.28;;;15.10;99.90;;;;;;4096142;29;20027;-67
2022/06/09 03:59:26;;;;;;;19.08;5.28;;;15.20;99.90;;;;;;4095528;28;20053;-67
2022/06/09 04:01:27;;;;;;;10.35;4.80;;;15.10;99.90;;;;;;4095014;28;20050;-67
2022/06/09 04:03:29;;;;;;;10.13;4.65;;;15.20;99.90;;;;;;4094535;28;20067;-67
2022/06/09 04:05:31;;;;;;;15.40;5.10;;;15.10;99.90;;;;;;4093397;28;20043;-66
2022/06/09 04:07:31;;;;;;;18.02;5.32;;;15.10;99.90;;;;;;4094505;28;20589;-67
2022/06/09 04:09:32;;;;;;;16.50;5.80;;;15.10;99.90;;;;;;4094953;28;20071;-67
2022/06/09 04:11:33;;;;;;;14.77;5.45;;;15.10;99.90;;;;;;4092212;28;20035;-66
2022/06/09 04:13:33;;;;;;;19.35;6.28;;;15.10;99.90;;;;;;4095089;29;20117;-70
2022/06/09 04:15:34;;;;;;;16.08;6.78;;;15.10;99.90;;;;;;4095604;29;20066;-67
2022/06/09 04:17:34;;;;;;;14.07;5.45;;;15.10;99.90;;;;;;4095889;29;20039;-67
2022/06/09 04:19:35;;;;;;;19.13;5.57;;;15.10;99.90;;;;;;4093940;28;20109;-67
2022/06/09 04:21:37;;;;;;;16.92;5.20;;;15.00;99.90;;;;;;4094456;28;20027;-67
2022/06/09 04:23:37;;;;;;;21.30;5.97;;;15.10;99.90;;;;;;4095765;28;20464;-67
2022/06/09 04:25:39;;;;;;;21.83;5.57;;;15.00;99.90;;;;;;4092101;28;20034;-67
2022/06/09 04:27:39;;;;;;;14.05;4.32;;;15.00;99.90;;;;;;4091789;28;20035;-67
2022/06/09 04:29:40;;;;;;;19.65;4.38;;;15.00;99.90;;;;;;4094863;28;20063;-67
2022/06/09 04:31:42;;;;;;;13.88;4.80;;;15.10;99.90;;;;;;4095500;29;20039;-67
2022/06/09 04:33:43;;;;;;;12.98;3.60;;;15.10;99.90;;;;;;4099814;28;20126;-67
2022/06/09 04:35:43;;;;;;;11.43;3.97;;;15.00;99.90;;;;;;4095347;29;20047;-68
2022/06/09 04:37:59;;;;;;;14.52;3.85;;;15.00;99.90;;;;;;4096226;29;20045;-68
2022/06/09 04:40:00;;;;;;;16.67;4.53;;;15.00;99.90;;;;;;4094221;29;20035;-67
2022/06/09 04:42:01;;;;;;;12.70;4.28;;;15.00;99.90;;;;;;4078890;29;20056;-67
2022/06/09 04:44:03;;;;;;;18.08;4.63;;;15.00;99.90;;;;;;4094456;28;20055;-66
2022/06/09 04:46:05;;;;;;;15.95;5.30;;;15.00;99.90;;;;;;4095258;29;20042;-67
2022/06/09 04:48:06;;;;;;;13.18;4.22;;;15.10;99.90;;;;;;4095719;29;20024;-67
2022/06/09 04:50:09;;;;;;;16.30;4.30;;;15.20;99.90;;;;;;4095165;29;20023;-68
2022/06/09 04:52:09;;;;;;;15.68;4.72;;;15.10;99.90;;;;;;4096328;29;20046;-67
2022/06/09 04:54:10;;;;;;;22.83;6.07;;;15.10;99.90;;;;;;4103350;28;20035;-67
2022/06/09 04:56:11;;;;;;;18.77;5.07;;;15.20;99.90;;;;;;4113665;28;20486;-67
2022/06/09 04:58:12;;;;;;;14.25;4.57;;;15.20;99.90;;;;;;4103106;28;20027;-67
2022/06/09 05:00:15;;;;;;;16.13;5.22;;;15.20;99.90;;;;;;4098333;28;20509;-67
2022/06/09 05:02:16;;;;;;;21.27;5.60;;;15.20;99.90;;;;;;4098758;29;20035;-67
2022/06/09 05:04:16;;;;;;;19.48;5.80;;;15.20;99.90;;;;;;4098882;28;20102;-67
2022/06/09 05:06:20;;;;;;;22.38;6.32;;;15.30;99.90;;;;;;4098460;28;20063;-67
2022/06/09 05:08:21;;;;;;;19.92;6.47;;;15.30;99.90;;;;;;4098156;28;20402;-66
2022/06/09 05:10:22;;;;;;;14.15;5.85;;;15.20;99.90;;;;;;4098977;28;20063;-67
2022/06/09 05:12:23;;;;;;;12.88;5.72;;;15.30;99.90;;;;;;4097977;28;20043;-67
2022/06/09 05:14:23;;;;;;;15.68;6.35;;;15.30;99.90;;;;;;4096147;28;20066;-67
2022/06/09 05:16:24;;;;;;;13.18;5.70;;;15.30;99.90;;;;;;4095552;28;20098;-67
2022/06/09 05:18:27;;;;;;;13.93;6.18;;;15.30;99.90;;;;;;4096168;28;20407;-67
2022/06/09 05:20:28;;;;;;;19.23;7.82;;;15.40;99.90;;;;;;4094249;28;20043;-67
2022/06/09 05:22:28;;;;;;;15.25;5.93;;;15.40;99.90;;;;;;4090738;28;20411;-67
2022/06/09 05:24:29;;;;;;;20.20;6.88;;;15.40;99.90;;;;;;4091436;28;20035;-67
2022/06/09 05:26:30;;;;;;;13.90;6.50;;;15.40;99.90;;;;;;4094002;28;20072;-67
2022/06/09 05:28:32;;;;;;;14.65;5.60;;;15.40;99.90;;;;;;4093735;28;20059;-67
2022/06/09 05:30:32;;;;;;;19.63;6.32;;;15.40;99.90;;;;;;4096347;28;20039;-67
2022/06/09 05:32:33;;;;;;;14.50;6.15;;;15.40;99.90;;;;;;4095522;28;20043;-67
2022/06/09 05:34:34;;;;;;;16.08;6.20;;;15.40;99.90;;;;;;4095902;28;20043;-66
2022/06/09 05:36:35;;;;;;;16.25;6.63;;;15.40;99.90;;;;;;4094532;28;20038;-68
2022/06/09 05:45:37;;;;;;;25.05;8.40;;;15.40;99.90;;;;;;4093962;28;20038;-65
2022/06/09 05:47:38;;;;;;;22.27;7.50;;;15.50;99.90;;;;;;4105603;28;20243;-67
2022/06/09 05:49:38;;;;;;;25.55;9.07;;;15.50;99.90;;;;;;4087139;28;20038;-67
2022/06/09 05:51:39;;;;;;;19.83;7.85;;;15.50;99.90;;;;;;4110827;28;20030;-67
2022/06/09 05:53:40;;;;;;;17.25;7.28;;;15.50;99.90;;;;;;4097068;29;20047;-67
2022/06/09 05:55:41;;;;;;;18.88;8.13;;;15.50;99.90;;;;;;4105356;28;20042;-67
2022/06/09 05:57:42;;;;;;;16.90;7.30;;;15.50;99.90;;;;;;4093164;29;20498;-67
2022/06/09 05:59:42;;;;;;;21.23;7.80;;;15.50;99.90;;;;;;4098242;29;20041;-67
2022/06/09 06:01:43;;;;;;;23.85;9.50;;;15.50;99.90;;;;;;4093334;28;20031;-67
2022/06/09 06:03:44;;;;;;;16.15;8.15;;;15.50;99.90;;;;;;4098103;29;20119;-70
2022/06/09 06:08:10;;;;;;;14.00;6.85;;;15.50;99.90;;;;;;4089282;28;20412;-67
2022/06/09 06:10:10;;;;;;;13.18;7.05;;;15.70;99.90;;;;;;4092918;28;20081;-67
2022/06/09 06:12:11;;;;;;;14.70;6.95;;;15.70;99.90;;;;;;4098154;29;20035;-67
2022/06/09 06:14:12;;;;;;;18.70;8.82;;;15.70;99.90;;;;;;4097896;29;20506;-67
2022/06/09 06:16:13;;;;;;;23.45;9.48;;;15.70;99.90;;;;;;4101409;28;20023;-67
2022/06/09 06:18:14;;;;;;;18.02;8.85;;;15.80;99.90;;;;;;4112327;28;20054;-67
2022/06/09 06:20:14;;;;;;;17.85;7.70;;;15.80;99.90;;;;;;4106559;28;20042;-67
2022/06/09 06:22:15;;;;;;;17.60;8.88;;;15.70;99.90;;;;;;4097062;29;20031;-67
2022/06/09 06:24:17;;;;;;;19.15;8.30;;;15.80;99.90;;;;;;4096253;29;20035;-67
2022/06/09 06:26:18;;;;;;;17.00;8.57;;;15.80;99.90;;;;;;4094723;28;20494;-68
2022/06/09 06:28:20;;;;;;;16.00;8.05;;;15.80;99.90;;;;;;4083390;28;20038;-67
2022/06/09 06:30:21;;;;;;;16.33;7.68;;;15.90;99.90;;;;;;4095267;28;20095;-67
2022/06/09 06:32:22;;;;;;;20.98;8.52;;;15.90;99.90;;;;;;4097971;28;20031;-67
2022/06/09 06:34:23;;;;;;;20.58;8.40;;;16.00;99.90;;;;;;4095942;28;20475;-67
2022/06/09 06:36:23;;;;;;;19.63;8.77;;;16.00;99.90;;;;;;4095242;28;20050;-67
2022/06/09 06:38:24;;;;;;;16.02;7.53;;;16.10;99.90;;;;;;4099985;28;20042;-67
2022/06/09 06:40:24;;;;;;;18.13;8.15;;;16.10;99.90;;;;;;4095972;28;20042;-67
2022/06/09 06:42:25;;;;;;;14.60;6.78;;;16.10;99.90;;;;;;4091875;28;20142;-67
2022/06/09 06:44:26;;;;;;;12.60;6.63;;;16.20;99.90;;;;;;4098766;28;20039;-67
2022/06/09 06:46:27;;;;;;;18.77;7.70;;;16.20;99.90;;;;;;4074800;29;20040;-67
2022/06/09 06:48:29;;;;;;;17.65;7.40;;;16.20;99.90;;;;;;4096929;29;20042;-67
2022/06/09 06:50:30;;;;;;;19.37;8.37;;;16.20;99.90;;;;;;4095877;28;20067;-67
2022/06/09 06:52:30;;;;;;;24.35;8.23;;;16.10;99.90;;;;;;4092270;28;20808;-67
2022/06/09 06:54:31;;;;;;;17.90;7.30;;;16.10;99.90;;;;;;4079034;29;20486;-67
2022/06/09 06:56:33;;;;;;;17.92;7.60;;;16.00;99.90;;;;;;4096088;28;20066;-67
2022/06/09 06:58:34;;;;;;;15.32;7.05;;;16.00;99.90;;;;;;4093835;28;20078;-67
2022/06/09 07:00:35;;;;;;;20.40;8.35;;;16.00;99.90;;;;;;4092697;28;20061;-67
2022/06/09 07:02:36;;;;;;;18.27;8.00;;;16.00;99.90;;;;;;4094270;28;20036;-68
2022/06/09 07:04:37;;;;;;;17.60;7.53;;;16.00;99.90;;;;;;4094072;28;20046;-68
2022/06/09 07:06:37;;;;;;;19.40;9.20;;;16.00;99.90;;;;;;4097357;28;20038;-67
2022/06/09 07:08:38;;;;;;;18.45;8.98;;;16.10;99.90;;;;;;4096588;28;20051;-68
2022/06/09 07:10:38;;;;;;;16.38;8.48;;;16.10;99.90;;;;;;4076068;29;20070;-67
2022/06/09 07:12:40;;;;;;;20.58;8.50;;;16.20;99.90;;;;;;4095558;29;20040;-67
2022/06/09 07:14:40;;;;;;;17.27;9.25;;;16.40;99.90;;;;;;4096769;29;20039;-67
2022/06/09 07:16:41;;;;;;;20.00;10.32;;;16.50;99.90;;;;;;4096117;29;20117;-67
2022/06/09 07:18:42;;;;;;;21.02;9.75;;;16.50;99.90;;;;;;4095752;28;20043;-67
2022/06/09 07:20:43;;;;;;;26.60;10.15;;;16.60;99.90;;;;;;4094987;28;20039;-67
2022/06/09 07:22:43;;;;;;;25.33;9.95;;;16.70;99.90;;;;;;4096278;28;20102;-67
2022/06/09 07:24:44;;;;;;;15.73;8.40;;;16.80;99.90;;;;;;4095924;28;20484;-67
2022/06/09 07:26:45;;;;;;;24.52;8.75;;;16.80;99.90;;;;;;4095428;28;20038;-67
2022/06/09 07:28:45;;;;;;;13.73;7.35;;;16.80;99.90;;;;;;4096100;28;20279;-67
2022/06/09 07:30:46;;;;;;;19.70;8.05;;;16.90;99.90;;;;;;4095878;29;20035;-67
2022/06/09 07:32:47;;;;;;;15.75;7.68;;;16.90;99.90;;;;;;4095634;28;20042;-67
2022/06/09 07:34:48;;;;;;;16.60;7.78;;;16.90;99.90;;;;;;4095180;28;20045;-67
2022/06/09 07:36:49;;;;;;;10.98;7.10;;;17.00;99.90;;;;;;4092613;28;20390;-67
2022/06/09 07:38:50;;;;;;;13.95;7.78;;;17.10;99.90;;;;;;4097472;28;20569;-67
2022/06/09 07:40:51;;;;;;;12.95;6.63;;;17.20;99.90;;;;;;4095620;29;20494;-67
2022/06/09 07:42:51;;;;;;;15.20;7.00;;;17.40;99.90;;;;;;4095941;28;20043;-66
2022/06/09 07:44:53;;;;;;;13.82;6.47;;;17.50;99.90;;;;;;4098985;28;20030;-67
2022/06/09 07:46:54;;;;;;;23.83;6.75;;;17.50;99.90;;;;;;4110008;28;20359;-67
2022/06/09 07:48:56;;;;;;;15.30;6.07;;;17.50;99.90;;;;;;4100431;28;20050;-67
2022/06/09 07:50:56;;;;;;;14.10;5.75;;;17.60;99.90;;;;;;4109304;28;20054;-67
2022/06/09 07:52:57;;;;;;;13.95;6.28;;;17.60;99.90;;;;;;4094813;28;20641;-67
2022/06/09 07:54:58;;;;;;;12.57;6.03;;;17.60;99.90;;;;;;4096685;29;20039;-67
2022/06/09 07:56:58;;;;;;;13.32;5.55;;;17.70;99.90;;;;;;4095829;29;20039;-67
2022/06/09 07:59:00;;;;;;;13.20;5.38;;;17.70;99.90;;;;;;4100368;28;20165;-66
2022/06/09 08:01:01;;;;;;;9.03;4.60;;;17.80;99.90;;;;;;4096544;28;20507;-67
2022/06/09 08:03:03;;;;;;;12.45;4.53;;;17.80;99.90;;;;;;4092367;28;20031;-67
2022/06/09 08:05:04;;;;;;;12.90;4.65;;;17.90;99.90;;;;;;4093214;28;20482;-67
2022/06/09 08:07:06;;;;;;;8.20;3.97;;;17.90;99.90;;;;;;4091538;28;20031;-67
2022/06/09 08:09:07;;;;;;;11.38;4.30;;;18.00;99.90;;;;;;4092972;28;20035;-69
2022/06/09 08:11:09;;;;;;;13.23;3.97;;;18.00;99.90;;;;;;4072674;29;20550;-67
2022/06/09 08:13:10;;;;;;;9.73;4.50;;;17.90;99.90;;;;;;4076513;29;20040;-67
2022/06/09 08:15:11;;;;;;;12.52;4.13;;;17.80;99.90;;;;;;4092778;28;20079;-67
2022/06/09 08:17:11;;;;;;;16.02;4.80;;;17.90;99.90;;;;;;4093581;28;20039;-67
2022/06/09 08:19:12;;;;;;;7.75;3.80;;;17.90;99.90;;;;;;4093618;28;20371;-67
2022/06/09 08:21:12;;;;;;;10.27;4.63;;;17.90;99.90;;;;;;4091330;28;20067;-67
2022/06/09 08:23:17;;;;;;;13.60;4.57;;;17.90;99.90;;;;;;4091737;28;20086;-67
2022/06/09 08:25:19;;;;;;;13.15;4.32;;;17.90;99.90;;;;;;4092331;28;20040;-69
2022/06/09 08:27:20;;;;;;;9.98;4.35;;;17.90;99.90;;;;;;4092808;28;20043;-68
2022/06/09 08:29:20;;;;;;;15.07;4.68;;;17.80;99.90;;;;;;4092784;28;20368;-67
2022/06/09 08:31:21;;;;;;;8.90;3.60;;;17.90;99.90;;;;;;4092608;28;20043;-68
2022/06/09 08:33:23;;;;;;;9.40;4.10;;;17.90;99.90;;;;;;4092507;28;20131;-68
2022/06/09 08:35:25;;;;;;;8.45;4.07;;;17.90;99.90;;;;;;4091921;28;20046;-68
2022/06/09 08:37:26;;;;;;;10.63;3.87;;;17.80;99.90;;;;;;4091380;28;20023;-68
2022/06/09 08:39:27;;;;;;;13.70;4.80;;;17.90;99.90;;;;;;4093133;28;20040;-68
2022/06/09 08:41:40;;;;;;;12.43;5.03;;;17.80;99.90;;;;;;4092486;28;20203;-68
2022/06/09 08:44:04;;;;;;;12.43;4.60;;;17.80;99.90;;;;;;4091914;28;20035;-68
2022/06/09 08:46:30;;;;;;;10.18;4.07;;;17.80;99.90;;;;;;4075101;29;20043;-68
2022/06/09 08:48:38;;;;;;;9.93;4.13;;;17.70;99.90;;;;;;4093299;28;20095;-68
2022/06/09 08:50:46;;;;;;;7.63;3.60;;;17.70;99.90;;;;;;4091155;28;20119;-69
2022/06/09 08:52:49;;;;;;;8.43;4.32;;;17.60;99.90;;;;;;4092661;28;20077;-68
2022/06/09 08:54:51;;;;;;;7.75;4.20;;;17.70;99.90;;;;;;4092659;28;20043;-69
2022/06/09 08:56:52;;;;;;;11.07;4.95;;;17.70;99.90;;;;;;4091957;28;20051;-68
2022/06/09 08:58:58;;;;;;;11.95;4.90;;;17.70;99.90;;;;;;4093747;28;20156;-68
2022/06/09 09:01:09;;;;;;;7.90;3.90;;;17.70;99.90;;;;;;4092603;28;20046;-68
2022/06/09 09:03:18;;;;;;;9.65;4.50;;;17.70;99.90;;;;;;4091191;29;20042;-68
2022/06/09 09:05:29;;;;;;;13.75;4.85;;;17.70;99.90;;;;;;4092414;28;20047;-68
2022/06/09 09:07:32;;;;;;;12.30;5.00;;;17.70;99.90;;;;;;4093033;28;20039;-68
2022/06/09 09:09:35;;;;;;;9.40;3.42;;;17.70;99.90;;;;;;4093010;28;20094;-68
2022/06/09 09:12:14;;;;;;;10.50;4.32;;;17.70;99.90;;;;;;4093145;28;20566;-68
2022/06/09 09:14:21;;;;;;;7.45;3.63;;;17.60;99.90;;;;;;4091579;28;20039;-68
2022/06/09 09:16:39;;;;;;;8.80;3.67;;;17.60;99.90;;;;;;4092686;28;20043;-68
2022/06/09 09:18:53;;;;;;;10.48;3.75;;;17.60;99.90;;;;;;4092830;28;20028;-68
2022/06/09 09:21:05;;;;;;;9.73;3.30;;;17.60;99.90;;;;;;4091317;28;20133;-68
2022/06/09 09:23:11;;;;;;;10.55;3.42;;;17.60;99.90;;;;;;4090942;28;20027;-68
2022/06/09 09:25:13;;;;;;;9.98;3.50;;;17.60;99.90;;;;;;4093313;28;20027;-67
2022/06/09 09:27:33;;;;;;;6.93;2.97;;;17.60;99.90;;;;;;4076088;29;20126;-68
2022/06/09 09:29:47;;;;;;;9.20;3.33;;;17.60;99.90;;;;;;4092598;28;20042;-68
2022/06/09 09:32:18;;;;;;;5.65;3.22;;;17.60;99.90;;;;;;4089887;28;20110;-69
2022/06/09 09:34:28;;;;;;;8.07;3.08;;;17.60;99.90;;;;;;4072451;28;20844;-69
2022/06/09 09:36:39;;;;;;;8.07;3.58;;;17.70;99.90;;;;;;4091328;28;20047;-68
2022/06/09 09:38:47;;;;;;;10.93;3.63;;;17.60;99.90;;;;;;4090748;29;20035;-69
2022/06/09 09:40:50;;;;;;;10.10;4.15;;;17.70;99.90;;;;;;4092254;28;20051;-68
2022/06/09 09:42:55;;;;;;;8.98;3.53;;;17.80;99.90;;;;;;4095079;29;20043;-68
2022/06/09 09:45:21;;;;;;;10.07;3.42;;;17.90;99.90;;;;;;4095054;28;20054;-68
2022/06/09 09:47:27;;;;;;;6.57;2.80;;;18.00;99.90;;;;;;4071853;29;20122;-69
2022/06/09 09:49:32;;;;;;;8.02;3.30;;;18.20;99.90;;;;;;4095470;28;20039;-68
2022/06/09 09:51:37;;;;;;;6.10;3.10;;;18.30;99.90;;;;;;4094100;28;20126;-68
2022/06/09 09:53:52;;;;;;;12.50;3.30;;;18.50;99.90;;;;;;4094619;28;20054;-68
2022/06/09 09:55:57;;;;;;;9.45;3.45;;;18.60;99.90;;;;;;4093666;28;20039;-68
2022/06/09 09:58:33;;;;;;;6.55;3.03;;;18.70;99.90;;;;;;4093089;28;20043;-68
2022/06/09 10:00:35;;;;;;;6.82;2.83;;;18.90;99.90;;;;;;4082178;28;20514;-68
2022/06/09 10:09:56;;;;;;;7.03;3.10;;;19.30;99.90;;;;;;4081279;28;20039;-68
2022/06/09 10:12:04;;;;;;;9.27;3.15;;;19.40;99.90;;;;;;4094891;29;20063;-68
2022/06/09 10:14:18;;;;;;;9.93;2.97;;;19.50;99.90;;;;;;4094809;28;20094;-68
2022/06/09 10:16:21;;;;;;;6.80;2.50;;;19.60;99.90;;;;;;4094271;28;20039;-68
2022/06/09 10:18:22;;;;;;;;;;;19.60;99.90;;;;;;4094352;28;20042;-68
2022/06/09 10:20:43;;;;;;;8.18;2.47;;;19.60;99.90;;;;;;4094065;28;20373;-68
2022/06/09 10:23:06;;;;;;;4.40;1.83;;;19.60;99.90;;;;;;4077088;29;20024;-68
2022/06/09 10:25:16;;;;;;;5.60;2.10;;;19.50;99.90;;;;;;4061547;28;20035;-69
2022/06/09 10:27:21;;;;;;;7.82;2.33;;;19.50;99.90;;;;;;4094565;28;20039;-68
2022/06/09 10:29:50;;;;;;;1.73;0.90;;;19.50;99.90;;;;;;4093871;28;20130;-68
2022/06/09 10:32:05;;;;;;;4.07;1.48;;;19.50;99.90;;;;;;4093614;28;20119;-68
2022/06/09 10:34:23;;;;;;;9.25;1.73;;;19.50;99.90;;;;;;4093083;28;20360;-68
2022/06/09 10:36:40;;;;;;;5.28;1.92;;;19.60;99.90;;;;;;4092395;28;20411;-68
2022/06/09 10:39:16;;;;;;;3.67;1.83;;;19.50;99.90;;;;;;4092961;28;20553;-68
2022/06/09 10:41:43;;;;;;;4.65;1.95;;;19.60;99.90;;;;;;4073306;29;20035;-68
2022/06/09 10:43:50;;;;;;;2.67;1.60;;;19.60;99.90;;;;;;4093578;28;20402;-68
2022/06/09 10:46:00;;;;;;;4.35;1.65;;;19.60;99.90;;;;;;4093333;28;20101;-69
2022/06/09 10:55:35;;;;;;;3.97;2.15;;;19.60;99.90;;;;;;4092975;28;20045;-68
2022/06/09 10:57:45;;;;;;;7.38;2.08;;;19.60;99.90;;;;;;4093950;28;20035;-68
2022/06/09 10:59:58;;;;;;;5.18;2.08;;;19.60;99.90;;;;;;4076555;29;20056;-68
2022/06/09 11:01:59;;;;;;;7.13;2.63;;;19.60;99.90;;;;;;4093197;28;20063;-68
2022/06/09 11:04:03;;;;;;;4.82;2.15;;;19.50;99.90;;;;;;4094120;28;20042;-68
2022/06/09 11:06:29;;;;;;;2.63;1.65;;;19.50;99.90;;;;;;4092857;28;20106;-68